sensor_id;sensor_type;location;lat;lon;timestamp;pressure;altitude;pressure_sealevel;temperature;humidity
71643;BME280;59438;45.014;39.006;2023-03-16T00:00:38;100365.00;;;7.31;66.41
71643;BME280;59438;45.014;39.006;2023-03-16T00:03:05;100369.34;;;7.31;65.61
71643;BME280;59438;45.014;39.006;2023-03-16T00:05:31;100368.59;;;7.27;65.51
71643;BME280;59438;45.014;39.006;2023-03-16T00:07:58;100362.56;;;7.25;66.36
71643;BME280;59438;45.014;39.006;2023-03-16T00:10:24;100358.34;;;7.19;65.56
71643;BME280;59438;45.014;39.006;2023-03-16T00:12:50;100355.63;;;7.22;66.19
71643;BME280;59438;45.014;39.006;2023-03-16T00:15:17;100347.91;;;7.19;65.82
71643;BME280;59438;45.014;39.006;2023-03-16T00:17:44;100333.22;;;7.15;66.65
71643;BME280;59438;45.014;39.006;2023-03-16T00:20:11;100340.25;;;7.13;66.03
71643;BME280;59438;45.014;39.006;2023-03-16T00:22:37;100335.03;;;7.13;66.57
71643;BME280;59438;45.014;39.006;2023-03-16T00:25:05;100323.16;;;7.01;66.39
71643;BME280;59438;45.014;39.006;2023-03-16T00:27:31;100341.94;;;7.14;66.88
71643;BME280;59438;45.014;39.006;2023-03-16T00:29:58;100323.72;;;7.13;66.40
71643;BME280;59438;45.014;39.006;2023-03-16T00:32:26;100306.84;;;6.93;66.73
71643;BME280;59438;45.014;39.006;2023-03-16T00:34:54;100317.94;;;7.01;66.97
71643;BME280;59438;45.014;39.006;2023-03-16T00:37:22;100330.66;;;7.14;66.49
71643;BME280;59438;45.014;39.006;2023-03-16T00:39:49;100342.00;;;7.13;66.64
71643;BME280;59438;45.014;39.006;2023-03-16T00:42:17;100318.13;;;6.95;66.35
71643;BME280;59438;45.014;39.006;2023-03-16T00:44:44;100340.28;;;7.12;66.57
71643;BME280;59438;45.014;39.006;2023-03-16T00:47:11;100345.53;;;7.10;66.37
71643;BME280;59438;45.014;39.006;2023-03-16T00:49:38;100356.88;;;7.11;66.49
71643;BME280;59438;45.014;39.006;2023-03-16T00:52:06;100340.41;;;7.07;66.53
71643;BME280;59438;45.014;39.006;2023-03-16T00:54:32;100336.97;;;7.06;66.60
71643;BME280;59438;45.014;39.006;2023-03-16T00:56:59;100344.00;;;7.04;66.38
71643;BME280;59438;45.014;39.006;2023-03-16T00:59:27;100333.59;;;7.01;67.31
71643;BME280;59438;45.014;39.006;2023-03-16T01:01:54;100334.44;;;7.03;66.95
71643;BME280;59438;45.014;39.006;2023-03-16T01:04:21;100331.00;;;7.01;67.10
71643;BME280;59438;45.014;39.006;2023-03-16T01:06:48;100338.03;;;6.99;66.74
71643;BME280;59438;45.014;39.006;2023-03-16T01:09:16;100338.03;;;6.99;66.62
71643;BME280;59438;45.014;39.006;2023-03-16T01:11:42;100358.94;;;6.98;66.92
71643;BME280;59438;45.014;39.006;2023-03-16T01:14:08;100358.09;;;6.97;67.33
71643;BME280;59438;45.014;39.006;2023-03-16T01:16:35;100359.00;;;6.96;67.48
71643;BME280;59438;45.014;39.006;2023-03-16T01:19:01;100360.88;;;6.91;67.19
71643;BME280;59438;45.014;39.006;2023-03-16T01:21:28;100366.03;;;6.94;66.71
71643;BME280;59438;45.014;39.006;2023-03-16T01:23:54;100367.75;;;6.94;67.13
71643;BME280;59438;45.014;39.006;2023-03-16T01:26:22;100373.06;;;6.92;67.16
71643;BME280;59438;45.014;39.006;2023-03-16T01:28:48;100385.19;;;6.93;67.58
71643;BME280;59438;45.014;39.006;2023-03-16T01:31:15;100381.75;;;6.91;67.09
71643;BME280;59438;45.014;39.006;2023-03-16T01:33:42;100379.19;;;6.90;67.82
71643;BME280;59438;45.014;39.006;2023-03-16T01:36:11;100366.19;;;6.88;68.05
71643;BME280;59438;45.014;39.006;2023-03-16T01:38:38;100369.63;;;6.90;67.67
71643;BME280;59438;45.014;39.006;2023-03-16T01:41:05;100377.47;;;6.90;67.96
71643;BME280;59438;45.014;39.006;2023-03-16T01:43:35;100370.69;;;6.81;67.71
71643;BME280;59438;45.014;39.006;2023-03-16T01:46:20;100378.34;;;6.89;68.93
71643;BME280;59438;45.014;39.006;2023-03-16T01:49:06;100380.13;;;6.87;68.29
71643;BME280;59438;45.014;39.006;2023-03-16T01:51:38;100353.69;;;6.66;68.38
71643;BME280;59438;45.014;39.006;2023-03-16T01:54:10;100384.53;;;6.85;68.33
71643;BME280;59438;45.014;39.006;2023-03-16T01:56:41;100371.13;;;6.66;69.01
71643;BME280;59438;45.014;39.006;2023-03-16T01:59:14;100381.13;;;6.83;68.98
71643;BME280;59438;45.014;39.006;2023-03-16T02:01:41;100388.97;;;6.81;67.98
71643;BME280;59438;45.014;39.006;2023-03-16T02:04:22;100376.97;;;6.76;69.66
71643;BME280;59438;45.014;39.006;2023-03-16T02:06:52;100387.31;;;6.79;68.36
71643;BME280;59438;45.014;39.006;2023-03-16T02:09:20;100387.34;;;6.77;69.03
71643;BME280;59438;45.014;39.006;2023-03-16T02:11:47;100390.88;;;6.76;68.44
71643;BME280;59438;45.014;39.006;2023-03-16T02:14:15;100391.75;;;6.75;69.43
71643;BME280;59438;45.014;39.006;2023-03-16T02:16:42;100388.38;;;6.72;68.60
71643;BME280;59438;45.014;39.006;2023-03-16T02:19:11;100375.66;;;6.59;69.07
71643;BME280;59438;45.014;39.006;2023-03-16T02:21:46;100390.22;;;6.68;69.56
71643;BME280;59438;45.014;39.006;2023-03-16T02:24:15;100392.84;;;6.66;68.75
71643;BME280;59438;45.014;39.006;2023-03-16T02:26:45;100384.22;;;6.64;69.95
71643;BME280;59438;45.014;39.006;2023-03-16T02:29:22;100386.69;;;6.69;69.58
71643;BME280;59438;45.014;39.006;2023-03-16T02:31:55;100378.09;;;6.65;69.29
71643;BME280;59438;45.014;39.006;2023-03-16T02:34:22;100375.56;;;6.62;69.12
71643;BME280;59438;45.014;39.006;2023-03-16T02:36:49;100379.94;;;6.62;68.75
71643;BME280;59438;45.014;39.006;2023-03-16T02:39:16;100383.41;;;6.61;69.15
71643;BME280;59438;45.014;39.006;2023-03-16T02:41:43;100387.81;;;6.59;68.93
71643;BME280;59438;45.014;39.006;2023-03-16T02:44:12;100380.06;;;6.57;68.91
71643;BME280;59438;45.014;39.006;2023-03-16T02:46:41;100375.72;;;6.56;69.08
71643;BME280;59438;45.014;39.006;2023-03-16T02:49:14;100392.22;;;6.57;69.63
71643;BME280;59438;45.014;39.006;2023-03-16T02:51:43;100368.97;;;6.49;69.06
71643;BME280;59438;45.014;39.006;2023-03-16T02:54:11;100381.91;;;6.52;68.69
71643;BME280;59438;45.014;39.006;2023-03-16T02:56:37;100382.81;;;6.51;69.10
71643;BME280;59438;45.014;39.006;2023-03-16T02:59:04;100379.41;;;6.49;69.74
71643;BME280;59438;45.014;39.006;2023-03-16T03:01:31;100378.59;;;6.45;69.43
71643;BME280;59438;45.014;39.006;2023-03-16T03:03:57;100373.38;;;6.45;68.79
71643;BME280;59438;45.014;39.006;2023-03-16T03:06:25;100382.13;;;6.44;70.36
71643;BME280;59438;45.014;39.006;2023-03-16T03:08:51;100360.59;;;6.36;69.80
71643;BME280;59438;45.014;39.006;2023-03-16T03:11:18;100372.69;;;6.39;70.04
71643;BME280;59438;45.014;39.006;2023-03-16T03:13:44;100383.94;;;6.41;69.24
71643;BME280;59438;45.014;39.006;2023-03-16T03:16:11;100386.59;;;6.39;69.74
71643;BME280;59438;45.014;39.006;2023-03-16T03:18:37;100386.59;;;6.39;69.74
71643;BME280;59438;45.014;39.006;2023-03-16T03:21:04;100394.41;;;6.39;69.95
71643;BME280;59438;45.014;39.006;2023-03-16T03:23:32;100395.25;;;6.40;70.97
71643;BME280;59438;45.014;39.006;2023-03-16T03:25:59;100396.19;;;6.39;70.07
71643;BME280;59438;45.014;39.006;2023-03-16T03:28:25;100387.50;;;6.38;69.78
71643;BME280;59438;45.014;39.006;2023-03-16T03:30:51;100392.72;;;6.38;70.18
71643;BME280;59438;45.014;39.006;2023-03-16T03:33:18;100389.22;;;6.38;69.72
71643;BME280;59438;45.014;39.006;2023-03-16T03:35:44;100362.69;;;6.22;69.93
71643;BME280;59438;45.014;39.006;2023-03-16T03:38:11;100381.47;;;6.36;70.11
71643;BME280;59438;45.014;39.006;2023-03-16T03:40:38;100391.91;;;6.36;70.91
71643;BME280;59438;45.014;39.006;2023-03-16T03:43:05;100388.41;;;6.36;69.92
71643;BME280;59438;45.014;39.006;2023-03-16T03:45:31;100392.78;;;6.35;69.94
71643;BME280;59438;45.014;39.006;2023-03-16T03:47:57;100391.03;;;6.36;70.42
71643;BME280;59438;45.014;39.006;2023-03-16T03:50:24;100398.84;;;6.36;70.49
71643;BME280;59438;45.014;39.006;2023-03-16T03:52:50;100400.56;;;6.37;70.89
71643;BME280;59438;45.014;39.006;2023-03-16T03:55:16;100396.22;;;6.37;70.36
71643;BME280;59438;45.014;39.006;2023-03-16T03:57:44;100391.03;;;6.36;71.26
71643;BME280;59438;45.014;39.006;2023-03-16T04:00:11;100390.03;;;6.40;70.43
71643;BME280;59438;45.014;39.006;2023-03-16T04:02:38;100392.63;;;6.41;70.38
71643;BME280;59438;45.014;39.006;2023-03-16T04:05:06;100385.63;;;6.43;71.05
71643;BME280;59438;45.014;39.006;2023-03-16T04:07:32;100383.91;;;6.42;70.40
71643;BME280;59438;45.014;39.006;2023-03-16T04:09:58;100406.44;;;6.47;70.66
71643;BME280;59438;45.014;39.006;2023-03-16T04:12:25;100399.34;;;6.50;71.15
71643;BME280;59438;45.014;39.006;2023-03-16T04:14:53;100398.38;;;6.54;71.34
71643;BME280;59438;45.014;39.006;2023-03-16T04:17:19;100398.31;;;6.57;70.51
71643;BME280;59438;45.014;39.006;2023-03-16T04:19:45;100406.06;;;6.60;71.12
71643;BME280;59438;45.014;39.006;2023-03-16T04:22:12;100406.03;;;6.62;70.98
71643;BME280;59438;45.014;39.006;2023-03-16T04:24:38;100414.66;;;6.65;71.14
71643;BME280;59438;45.014;39.006;2023-03-16T04:27:05;100411.94;;;6.69;70.68
71643;BME280;59438;45.014;39.006;2023-03-16T04:29:31;100417.00;;;6.75;71.11
71643;BME280;59438;45.014;39.006;2023-03-16T04:31:59;100410.84;;;6.77;70.85
71643;BME280;59438;45.014;39.006;2023-03-16T04:34:25;100413.38;;;6.80;71.04
71643;BME280;59438;45.014;39.006;2023-03-16T04:36:52;100417.59;;;6.86;70.76
71643;BME280;59438;45.014;39.006;2023-03-16T04:39:18;100420.06;;;6.92;71.02
71643;BME280;59438;45.014;39.006;2023-03-16T04:41:45;100422.53;;;6.97;70.72
71643;BME280;59438;45.014;39.006;2023-03-16T04:44:11;100422.44;;;7.00;70.44
71643;BME280;59438;45.014;39.006;2023-03-16T04:46:37;100433.53;;;7.08;70.76
71643;BME280;59438;45.014;39.006;2023-03-16T04:49:05;100443.78;;;7.16;71.40
71643;BME280;59438;45.014;39.006;2023-03-16T04:51:31;100442.72;;;7.23;70.46
71643;BME280;59438;45.014;39.006;2023-03-16T04:53:58;100444.34;;;7.27;70.15
71643;BME280;59438;45.014;39.006;2023-03-16T04:56:24;100441.56;;;7.33;70.25
71643;BME280;59438;45.014;39.006;2023-03-16T04:58:50;100434.44;;;7.38;70.77
71643;BME280;59438;45.014;39.006;2023-03-16T05:01:17;100442.97;;;7.45;71.02
71643;BME280;59438;45.014;39.006;2023-03-16T05:03:43;100446.22;;;7.53;70.32
71643;BME280;59438;45.014;39.006;2023-03-16T05:06:12;100439.16;;;7.57;70.92
71643;BME280;59438;45.014;39.006;2023-03-16T05:08:38;100451.09;;;7.65;70.81
71643;BME280;59438;45.014;39.006;2023-03-16T05:11:05;100448.31;;;7.72;70.19
71643;BME280;59438;45.014;39.006;2023-03-16T05:13:31;100454.94;;;7.83;70.27
71643;BME280;59438;45.014;39.006;2023-03-16T05:15:57;100451.44;;;7.84;70.15
71643;BME280;59438;45.014;39.006;2023-03-16T05:18:24;100458.88;;;7.97;69.98
71643;BME280;59438;45.014;39.006;2023-03-16T05:20:51;100468.28;;;8.04;69.75
71643;BME280;59438;45.014;39.006;2023-03-16T05:23:19;100456.72;;;8.11;69.99
71643;BME280;59438;45.014;39.006;2023-03-16T05:25:46;100460.91;;;8.17;69.68
71643;BME280;59438;45.014;39.006;2023-03-16T05:28:12;100466.78;;;8.23;69.35
71643;BME280;59438;45.014;39.006;2023-03-16T05:30:39;100457.09;;;8.27;68.80
71643;BME280;59438;45.014;39.006;2023-03-16T05:33:05;100469.22;;;8.30;68.86
71643;BME280;59438;45.014;39.006;2023-03-16T05:35:31;100454.28;;;8.33;68.88
71643;BME280;59438;45.014;39.006;2023-03-16T05:37:58;100448.19;;;8.33;68.78
71643;BME280;59438;45.014;39.006;2023-03-16T05:40:26;100460.09;;;8.44;68.75
71643;BME280;59438;45.014;39.006;2023-03-16T05:42:54;100458.91;;;8.53;69.33
71643;BME280;59438;45.014;39.006;2023-03-16T05:45:21;100468.19;;;8.63;68.53
71643;BME280;59438;45.014;39.006;2023-03-16T05:47:47;100453.94;;;8.72;67.91
71643;BME280;59438;45.014;39.006;2023-03-16T05:50:14;100450.06;;;8.84;67.82
71643;BME280;59438;45.014;39.006;2023-03-16T05:52:42;100459.47;;;8.90;68.07
71643;BME280;59438;45.014;39.006;2023-03-16T05:55:09;100459.31;;;8.94;67.66
71643;BME280;59438;45.014;39.006;2023-03-16T05:57:37;100453.84;;;9.00;67.84
71643;BME280;59438;45.014;39.006;2023-03-16T06:00:05;100445.16;;;9.00;68.08
71643;BME280;59438;45.014;39.006;2023-03-16T06:02:31;100450.69;;;9.16;67.44
71643;BME280;59438;45.014;39.006;2023-03-16T06:04:58;100452.03;;;9.27;67.20
71643;BME280;59438;45.014;39.006;2023-03-16T06:07:24;100455.06;;;9.40;67.41
71643;BME280;59438;45.014;39.006;2023-03-16T06:09:50;100462.47;;;9.53;67.08
71643;BME280;59438;45.014;39.006;2023-03-16T06:12:17;100458.38;;;9.69;66.68
71643;BME280;59438;45.014;39.006;2023-03-16T06:14:45;100459.69;;;9.81;66.44
71643;BME280;59438;45.014;39.006;2023-03-16T06:17:11;100455.84;;;9.89;65.94
71643;BME280;59438;45.014;39.006;2023-03-16T06:19:37;100446.78;;;9.98;66.18
71643;BME280;59438;45.014;39.006;2023-03-16T06:22:04;100452.56;;;10.06;66.29
71643;BME280;59438;45.014;39.006;2023-03-16T06:24:30;100451.31;;;10.17;66.17
71643;BME280;59438;45.014;39.006;2023-03-16T06:26:57;100453.44;;;10.29;66.06
71643;BME280;59438;45.014;39.006;2023-03-16T06:29:23;100446.84;;;10.42;66.15
71643;BME280;59438;45.014;39.006;2023-03-16T06:31:51;100454.91;;;10.58;65.89
71643;BME280;59438;45.014;39.006;2023-03-16T06:34:17;100452.56;;;10.73;65.29
71643;BME280;59438;45.014;39.006;2023-03-16T06:36:44;100446.81;;;10.85;64.50
71643;BME280;59438;45.014;39.006;2023-03-16T06:39:10;100453.91;;;11.03;65.46
71643;BME280;59438;45.014;39.006;2023-03-16T06:41:36;100442.16;;;11.12;65.26
71643;BME280;59438;45.014;39.006;2023-03-16T06:44:03;100453.38;;;11.36;64.51
71643;BME280;59438;45.014;39.006;2023-03-16T06:46:29;100445.72;;;11.50;64.02
71643;BME280;59438;45.014;39.006;2023-03-16T06:48:57;100455.56;;;11.66;63.69
71643;BME280;59438;45.014;39.006;2023-03-16T06:51:23;100449.56;;;11.81;63.97
71643;BME280;59438;45.014;39.006;2023-03-16T06:53:50;100445.41;;;11.96;63.33
71643;BME280;59438;45.014;39.006;2023-03-16T06:56:16;100449.19;;;12.09;63.31
71643;BME280;59438;45.014;39.006;2023-03-16T06:58:42;100452.91;;;12.23;62.62
71643;BME280;59438;45.014;39.006;2023-03-16T07:01:09;100425.81;;;12.21;62.69
71643;BME280;59438;45.014;39.006;2023-03-16T07:03:35;100448.50;;;12.42;62.28
71643;BME280;59438;45.014;39.006;2023-03-16T07:06:03;100452.50;;;12.49;62.16
71643;BME280;59438;45.014;39.006;2023-03-16T07:08:30;100443.41;;;12.57;62.26
71643;BME280;59438;45.014;39.006;2023-03-16T07:10:56;100442.06;;;12.65;61.86
71643;BME280;59438;45.014;39.006;2023-03-16T07:13:22;100437.28;;;12.74;61.57
71643;BME280;59438;45.014;39.006;2023-03-16T07:15:49;100434.41;;;12.78;61.28
71643;BME280;59438;45.014;39.006;2023-03-16T07:18:16;100430.53;;;12.85;61.49
71643;BME280;59438;45.014;39.006;2023-03-16T07:20:42;100440.78;;;12.92;61.36
71643;BME280;59438;45.014;39.006;2023-03-16T07:23:10;100444.78;;;12.99;60.70
71643;BME280;59438;45.014;39.006;2023-03-16T07:25:36;100444.00;;;13.14;61.11
71643;BME280;59438;45.014;39.006;2023-03-16T07:28:03;100453.84;;;13.45;61.06
71643;BME280;59438;45.014;39.006;2023-03-16T07:30:30;100454.94;;;13.90;60.79
71643;BME280;59438;45.014;39.006;2023-03-16T07:32:56;100459.16;;;14.41;60.45
71643;BME280;59438;45.014;39.006;2023-03-16T07:35:23;100454.50;;;14.76;59.52
71643;BME280;59438;45.014;39.006;2023-03-16T07:37:49;100461.88;;;15.01;58.89
71643;BME280;59438;45.014;39.006;2023-03-16T07:40:17;100469.53;;;15.06;57.58
71643;BME280;59438;45.014;39.006;2023-03-16T07:42:44;100455.31;;;14.93;57.80
71643;BME280;59438;45.014;39.006;2023-03-16T07:45:10;100462.00;;;14.84;58.25
71643;BME280;59438;45.014;39.006;2023-03-16T07:47:37;100473.56;;;14.67;58.22
71643;BME280;59438;45.014;39.006;2023-03-16T07:50:04;100459.56;;;14.49;58.16
71643;BME280;59438;45.014;39.006;2023-03-16T07:52:30;100462.69;;;14.41;58.48
71643;BME280;59438;45.014;39.006;2023-03-16T07:54:57;100465.69;;;14.35;58.82
71643;BME280;59438;45.014;39.006;2023-03-16T07:57:24;100468.41;;;14.34;58.00
71643;BME280;59438;45.014;39.006;2023-03-16T07:59:51;100475.38;;;14.35;58.86
71643;BME280;59438;45.014;39.006;2023-03-16T08:02:18;100472.66;;;14.36;58.48
71643;BME280;59438;45.014;39.006;2023-03-16T08:04:45;100483.06;;;14.39;58.70
71643;BME280;59438;45.014;39.006;2023-03-16T08:07:13;100479.38;;;14.42;58.28
71643;BME280;59438;45.014;39.006;2023-03-16T08:09:40;100478.34;;;14.44;58.64
71643;BME280;59438;45.014;39.006;2023-03-16T08:12:08;100475.44;;;14.49;58.07
71643;BME280;59438;45.014;39.006;2023-03-16T08:14:36;100471.00;;;14.49;57.70
71643;BME280;59438;45.014;39.006;2023-03-16T08:17:03;100469.88;;;14.54;58.22
71643;BME280;59438;45.014;39.006;2023-03-16T08:19:30;100479.03;;;14.64;58.16
71643;BME280;59438;45.014;39.006;2023-03-16T08:21:57;100474.25;;;14.70;58.49
71643;BME280;59438;45.014;39.006;2023-03-16T08:24:23;100476.72;;;14.74;58.23
71643;BME280;59438;45.014;39.006;2023-03-16T08:26:49;100462.19;;;14.81;58.29
71643;BME280;59438;45.014;39.006;2023-03-16T08:29:16;100476.06;;;14.84;57.74
71643;BME280;59438;45.014;39.006;2023-03-16T08:31:43;100472.41;;;14.87;57.66
71643;BME280;59438;45.014;39.006;2023-03-16T08:34:10;100466.09;;;14.89;57.40
71643;BME280;59438;45.014;39.006;2023-03-16T08:36:36;100463.25;;;14.93;57.58
71643;BME280;59438;45.014;39.006;2023-03-16T08:39:03;100455.06;;;14.97;57.51
71643;BME280;59438;45.014;39.006;2023-03-16T08:41:30;100452.22;;;15.00;57.51
71643;BME280;59438;45.014;39.006;2023-03-16T08:43:56;100450.25;;;15.04;57.96
71643;BME280;59438;45.014;39.006;2023-03-16T08:46:22;100448.94;;;15.11;57.74
71643;BME280;59438;45.014;39.006;2023-03-16T08:48:50;100451.50;;;15.13;56.88
71643;BME280;59438;45.014;39.006;2023-03-16T08:51:17;100447.63;;;15.18;57.56
71643;BME280;59438;45.014;39.006;2023-03-16T08:53:44;100449.25;;;15.21;57.16
71643;BME280;59438;45.014;39.006;2023-03-16T08:56:11;100445.38;;;15.26;57.08
71643;BME280;59438;45.014;39.006;2023-03-16T08:58:38;100450.38;;;15.31;57.61
71643;BME280;59438;45.014;39.006;2023-03-16T09:01:05;100451.72;;;15.38;57.25
71643;BME280;59438;45.014;39.006;2023-03-16T09:03:31;100435.66;;;15.41;56.93
71643;BME280;59438;45.014;39.006;2023-03-16T09:06:02;100452.66;;;15.51;56.64
71643;BME280;59438;45.014;39.006;2023-03-16T09:08:30;100440.66;;;15.46;56.94
71643;BME280;59438;45.014;39.006;2023-03-16T09:10:59;100456.44;;;15.62;56.29
71643;BME280;59438;45.014;39.006;2023-03-16T09:13:26;100456.06;;;15.68;56.45
71643;BME280;59438;45.014;39.006;2023-03-16T09:15:52;100434.72;;;15.57;56.41
71643;BME280;59438;45.014;39.006;2023-03-16T09:18:19;100455.72;;;15.74;56.51
71643;BME280;59438;45.014;39.006;2023-03-16T09:20:45;100454.03;;;15.73;56.63
71643;BME280;59438;45.014;39.006;2023-03-16T09:23:13;100450.97;;;15.79;56.23
71643;BME280;59438;45.014;39.006;2023-03-16T09:25:39;100457.00;;;15.81;56.29
71643;BME280;59438;45.014;39.006;2023-03-16T09:28:06;100451.53;;;15.84;56.40
71643;BME280;59438;45.014;39.006;2023-03-16T09:30:32;100455.78;;;15.87;56.35
71643;BME280;59438;45.014;39.006;2023-03-16T09:32:59;100453.81;;;15.90;55.85
71643;BME280;59438;45.014;39.006;2023-03-16T09:35:25;100450.19;;;15.91;56.28
71643;BME280;59438;45.014;39.006;2023-03-16T09:37:51;100455.22;;;15.96;56.35
71643;BME280;59438;45.014;39.006;2023-03-16T09:40:22;100434.22;;;15.93;55.71
71643;BME280;59438;45.014;39.006;2023-03-16T09:42:58;100453.88;;;16.03;55.28
71643;BME280;59438;45.014;39.006;2023-03-16T09:45:36;100452.94;;;16.04;55.47
71643;BME280;59438;45.014;39.006;2023-03-16T09:48:04;100461.50;;;16.08;55.58
71643;BME280;59438;45.014;39.006;2023-03-16T09:50:36;100442.97;;;16.08;55.41
71643;BME280;59438;45.014;39.006;2023-03-16T09:53:07;100445.03;;;16.17;55.48
71643;BME280;59438;45.014;39.006;2023-03-16T09:55:42;100448.03;;;16.25;55.16
71643;BME280;59438;45.014;39.006;2023-03-16T09:58:15;100442.34;;;16.31;55.06
71643;BME280;59438;45.014;39.006;2023-03-16T10:00:44;100444.94;;;16.46;55.54
71643;BME280;59438;45.014;39.006;2023-03-16T10:03:19;100447.38;;;16.49;54.74
71643;BME280;59438;45.014;39.006;2023-03-16T10:05:54;100447.19;;;16.52;54.45
71643;BME280;59438;45.014;39.006;2023-03-16T10:08:23;100457.47;;;16.57;54.91
71643;BME280;59438;45.014;39.006;2023-03-16T10:11:04;100450.19;;;16.60;54.39
71643;BME280;59438;45.014;39.006;2023-03-16T10:13:40;100449.22;;;16.61;54.14
71643;BME280;59438;45.014;39.006;2023-03-16T10:16:11;100456.97;;;16.64;54.45
71643;BME280;59438;45.014;39.006;2023-03-16T10:18:40;100453.84;;;16.72;54.76
71643;BME280;59438;45.014;39.006;2023-03-16T10:21:11;100457.00;;;16.77;54.21
71643;BME280;59438;45.014;39.006;2023-03-16T10:23:38;100461.09;;;16.83;54.74
71643;BME280;59438;45.014;39.006;2023-03-16T10:26:12;100452.50;;;16.92;54.39
71643;BME280;59438;45.014;39.006;2023-03-16T10:28:39;100454.97;;;16.95;54.86
71643;BME280;59438;45.014;39.006;2023-03-16T10:31:05;100453.06;;;16.97;54.96
71643;BME280;59438;45.014;39.006;2023-03-16T10:33:34;100456.97;;;16.91;54.19
71643;BME280;59438;45.014;39.006;2023-03-16T10:36:04;100460.78;;;16.87;54.49
71643;BME280;59438;45.014;39.006;2023-03-16T10:38:40;100468.22;;;16.82;54.37
71643;BME280;59438;45.014;39.006;2023-03-16T10:41:23;100467.53;;;16.79;54.49
71643;BME280;59438;45.014;39.006;2023-03-16T10:43:51;100464.88;;;16.79;54.33
71643;BME280;59438;45.014;39.006;2023-03-16T10:46:18;100459.19;;;16.85;55.01
71643;BME280;59438;45.014;39.006;2023-03-16T10:48:51;100466.00;;;16.89;54.53
71643;BME280;59438;45.014;39.006;2023-03-16T10:51:19;100469.38;;;16.91;54.88
71643;BME280;59438;45.014;39.006;2023-03-16T10:53:49;100484.75;;;16.86;53.92
71643;BME280;59438;45.014;39.006;2023-03-16T10:56:21;100469.41;;;16.64;54.04
71643;BME280;59438;45.014;39.006;2023-03-16T10:58:48;100487.09;;;16.63;54.81
71643;BME280;59438;45.014;39.006;2023-03-16T11:01:17;100479.84;;;16.52;55.01
71643;BME280;59438;45.014;39.006;2023-03-16T11:03:48;100479.19;;;16.49;54.93
71643;BME280;59438;45.014;39.006;2023-03-16T11:06:18;100467.88;;;16.32;55.37
71643;BME280;59438;45.014;39.006;2023-03-16T11:08:46;100480.75;;;16.39;55.83
71643;BME280;59438;45.014;39.006;2023-03-16T11:11:16;100475.00;;;16.32;55.24
71643;BME280;59438;45.014;39.006;2023-03-16T11:13:44;100484.25;;;16.39;55.36
71643;BME280;59438;45.014;39.006;2023-03-16T11:16:23;100480.88;;;16.37;55.60
71643;BME280;59438;45.014;39.006;2023-03-16T11:18:53;100463.94;;;16.25;56.09
71643;BME280;59438;45.014;39.006;2023-03-16T11:21:29;100491.91;;;16.44;54.97
71643;BME280;59438;45.014;39.006;2023-03-16T11:24:01;100488.28;;;16.45;55.15
71643;BME280;59438;45.014;39.006;2023-03-16T11:26:31;100495.00;;;16.50;55.05
71643;BME280;59438;45.014;39.006;2023-03-16T11:29:05;100502.03;;;16.51;54.81
71643;BME280;59438;45.014;39.006;2023-03-16T11:31:38;100511.00;;;16.49;54.69
71643;BME280;59438;45.014;39.006;2023-03-16T11:34:12;100480.38;;;16.30;54.69
71643;BME280;59438;45.014;39.006;2023-03-16T11:36:45;100512.44;;;16.40;54.56
71643;BME280;59438;45.014;39.006;2023-03-16T11:39:20;100504.72;;;16.37;55.05
71643;BME280;59438;45.014;39.006;2023-03-16T11:41:57;100495.34;;;16.31;54.67
71643;BME280;59438;45.014;39.006;2023-03-16T11:44:32;100499.59;;;16.34;55.16
71643;BME280;59438;45.014;39.006;2023-03-16T11:47:07;100488.47;;;16.29;55.14
71643;BME280;59438;45.014;39.006;2023-03-16T11:49:54;100499.94;;;16.42;54.48
71643;BME280;59438;45.014;39.006;2023-03-16T11:52:31;100491.34;;;16.39;54.79
71643;BME280;59438;45.014;39.006;2023-03-16T11:55:09;100473.88;;;16.22;54.77
71643;BME280;59438;45.014;39.006;2023-03-16T11:57:50;100499.06;;;16.29;54.81
71643;BME280;59438;45.014;39.006;2023-03-16T12:00:26;100495.00;;;16.23;54.63
71643;BME280;59438;45.014;39.006;2023-03-16T12:03:18;100503.34;;;16.17;54.92
71643;BME280;59438;45.014;39.006;2023-03-16T12:05:57;100499.94;;;16.15;55.68
71643;BME280;59438;45.014;39.006;2023-03-16T12:08:42;100502.56;;;16.15;54.53
71643;BME280;59438;45.014;39.006;2023-03-16T12:11:17;100504.38;;;16.15;54.96
71643;BME280;59438;45.014;39.006;2023-03-16T12:14:05;100512.88;;;16.20;54.35
71643;BME280;59438;45.014;39.006;2023-03-16T12:16:40;100517.13;;;16.22;54.79
71643;BME280;59438;45.014;39.006;2023-03-16T12:19:13;100516.19;;;16.23;54.95
71643;BME280;59438;45.014;39.006;2023-03-16T12:21:43;100498.13;;;16.16;55.44
71643;BME280;59438;45.014;39.006;2023-03-16T12:24:13;100525.44;;;16.30;54.47
71643;BME280;59438;45.014;39.006;2023-03-16T12:26:42;100526.09;;;16.34;54.45
71643;BME280;59438;45.014;39.006;2023-03-16T12:29:17;100532.16;;;16.36;53.83
71643;BME280;59438;45.014;39.006;2023-03-16T12:31:52;100522.53;;;16.35;54.14
71643;BME280;59438;45.014;39.006;2023-03-16T12:34:24;100537.53;;;16.35;54.07
71643;BME280;59438;45.014;39.006;2023-03-16T12:36:59;100526.19;;;16.32;54.60
71643;BME280;59438;45.014;39.006;2023-03-16T12:39:47;100517.13;;;16.22;54.69
71643;BME280;59438;45.014;39.006;2023-03-16T12:45:10;100533.03;;;16.22;54.68
71643;BME280;59438;45.014;39.006;2023-03-16T12:47:45;100529.06;;;16.15;55.03
71643;BME280;59438;45.014;39.006;2023-03-16T12:50:16;100493.06;;;15.84;55.10
71643;BME280;59438;45.014;39.006;2023-03-16T12:52:44;100541.19;;;16.05;55.25
71643;BME280;59438;45.014;39.006;2023-03-16T12:55:14;100522.47;;;15.94;55.18